Kt Birdie — 3FUJ7 — position and weather

sailwx.info

Track history (hours):
 
Tides and Currents Weather Stations Pressure Air Temp Water Temp Dewpoint Dewpoint Depression Visibility Wind Speed Wind Dir Waves Ship Positions

Kt Birdie

Last reported at 2015-Jul-26 03:33 UTC. Time now 2015-Jul-31 01:04 UTC.
Position N 22°08' E 114°18'.

Length 225 m; draft 7.4 m.

Type: Cargo ship. MMSI: 354803000.

Date/timePositionNaut miles runAvg speedWind from/ knotsBaromVisibWave heightAir tempDewpointWater temp
2015-Jul-26 03:33N 22°08' E 114°18'8 3.4
2015-Jul-26 01:09N 22°10' E 114°10'0 0.1
2015-Jul-26 00:32N 22°10' E 114°10'0 0.0
2015-Jul-25 23:17N 22°10' E 114°10'0 0.0
2015-Jul-25 22:33N 22°10' E 114°10'0 0.0
2015-Jul-25 21:28N 22°10' E 114°10'0 0.0
2015-Jul-25 20:30N 22°10' E 114°10'0 0.1
2015-Jul-25 19:31N 22°10' E 114°10'0 0.0
2015-Jul-25 18:32N 22°10' E 114°10'0 0.0
2015-Jul-25 15:27N 22°10' E 114°10'0 0.1
2015-Jul-25 14:10N 22°10' E 114°10'0 0.0
2015-Jul-25 13:27N 22°10' E 114°10'2 2.3
2015-Jul-25 12:33N 22°12' E 114°10'11 9.4
2015-Jul-25 11:22N 22°21' E 114°03'7 0.3
2015-Jul-24 09:21N 22°22' E 113°55'0 0.0
2015-Jul-24 08:03N 22°22' E 113°55'0 0.0
2015-Jul-24 07:33N 22°22' E 113°55'0 0.0
2015-Jul-24 06:33N 22°22' E 113°55'0 0.0
2015-Jul-24 05:33N 22°22' E 113°55'0 0.0
2015-Jul-24 04:33N 22°22' E 113°55'0 0.0
2015-Jul-24 03:33N 22°22' E 113°55'0 0.0
2015-Jul-23 08:21N 22°22' E 113°55'0 0.0
2015-Jul-23 07:33N 22°22' E 113°55'0 0.0
2015-Jul-23 06:27N 22°22' E 113°55'0 0.0
2015-Jul-23 04:15N 22°22' E 113°55'0 0.0
2015-Jul-23 03:33N 22°22' E 113°55'0 0.0
2015-Jul-23 02:33N 22°22' E 113°55'0 0.0
2015-Jul-23 01:33N 22°22' E 113°55'0 0.0
2015-Jul-22 09:33N 22°22' E 113°55'0 0.0
2015-Jul-22 08:33N 22°22' E 113°55'9 4.7
2015-Jul-22 06:33N 22°20' E 114°05'16 7.3
2015-Jul-22 04:21N 22°09' E 114°18'7 8.0
2015-Jul-22 03:32N 22°09' E 114°25'  
Track history (hours):
 
Tides and Currents Weather Stations Pressure Air Temp Water Temp Dewpoint Dewpoint Depression Visibility Wind Speed Wind Dir Waves Ship Positions

Kt Birdie

Last reported at 2015-Jul-26 03:33 UTC. Time now 2015-Jul-31 01:04 UTC.
Position N 22°08' E 114°18'.

Length 225 m; draft 7.4 m.

Type: Cargo ship. MMSI: 354803000.

Date/timePositionNaut miles runAvg speedWind from/ knotsBaromVisibWave heightAir tempDewpointWater temp
2015-Jul-26 03:33N 22°08' E 114°18'8 3.4
2015-Jul-26 01:09N 22°10' E 114°10'0 0.1
2015-Jul-26 00:32N 22°10' E 114°10'0 0.0
2015-Jul-25 23:17N 22°10' E 114°10'0 0.0
2015-Jul-25 22:33N 22°10' E 114°10'0 0.0
2015-Jul-25 21:28N 22°10' E 114°10'0 0.0
2015-Jul-25 20:30N 22°10' E 114°10'0 0.1
2015-Jul-25 19:31N 22°10' E 114°10'0 0.0
2015-Jul-25 18:32N 22°10' E 114°10'0 0.0
2015-Jul-25 15:27N 22°10' E 114°10'0 0.1
2015-Jul-25 14:10N 22°10' E 114°10'0 0.0
2015-Jul-25 13:27N 22°10' E 114°10'2 2.3
2015-Jul-25 12:33N 22°12' E 114°10'11 9.4
2015-Jul-25 11:22N 22°21' E 114°03'7 0.3
2015-Jul-24 09:21N 22°22' E 113°55'0 0.0
2015-Jul-24 08:03N 22°22' E 113°55'0 0.0
2015-Jul-24 07:33N 22°22' E 113°55'0 0.0
2015-Jul-24 06:33N 22°22' E 113°55'0 0.0
2015-Jul-24 05:33N 22°22' E 113°55'0 0.0
2015-Jul-24 04:33N 22°22' E 113°55'0 0.0
2015-Jul-24 03:33N 22°22' E 113°55'0 0.0
2015-Jul-23 08:21N 22°22' E 113°55'0 0.0
2015-Jul-23 07:33N 22°22' E 113°55'0 0.0
2015-Jul-23 06:27N 22°22' E 113°55'0 0.0
2015-Jul-23 04:15N 22°22' E 113°55'0 0.0
2015-Jul-23 03:33N 22°22' E 113°55'0 0.0
2015-Jul-23 02:33N 22°22' E 113°55'0 0.0
2015-Jul-23 01:33N 22°22' E 113°55'0 0.0
2015-Jul-22 09:33N 22°22' E 113°55'0 0.0
2015-Jul-22 08:33N 22°22' E 113°55'9 4.7
2015-Jul-22 06:33N 22°20' E 114°05'16 7.3
2015-Jul-22 04:21N 22°09' E 114°18'7 8.0
2015-Jul-22 03:32N 22°09' E 114°25'  

Dump ship's entire track history